Time;durP1;ratioP1;P1;durP2;ratioP2;P2;SDS_P1;SDS_P2;PMS_P1;PMS_P2;Temp;Humidity;BMP_temperature;BMP_pressure;BME280_temperature;BME280_humidity;BME280_pressure;Samples;Min_cycle;Max_cycle;Signal;HPM_P1;HPM_P2
2024/04/25 00:00:47;;;;;;;2.33;1.80;;;5.50;77.10;;;;;;5472125;26;20065;-64
2024/04/25 00:03:13;;;;;;;2.20;2.00;;;5.60;77.10;;;;;;5468432;26;20002;-64
2024/04/25 00:05:40;;;;;;;2.97;2.10;;;5.50;76.90;;;;;;5472270;26;20472;-64
2024/04/25 00:08:06;;;;;;;3.58;2.10;;;5.60;76.90;;;;;;5475305;26;20337;-63
2024/04/25 00:10:33;;;;;;;2.95;2.20;;;5.50;76.90;;;;;;5467859;26;19990;-63
2024/04/25 00:12:58;;;;;;;2.65;2.00;;;5.50;77.00;;;;;;5469879;26;20008;-63
2024/04/25 00:15:24;;;;;;;2.22;2.00;;;5.50;77.10;;;;;;5478233;26;19998;-63
2024/04/25 00:17:49;;;;;;;2.22;1.85;;;5.40;77.10;;;;;;5477196;26;20025;-63
2024/04/25 00:20:15;;;;;;;2.15;1.98;;;5.40;77.10;;;;;;5462790;26;20408;-63
2024/04/25 00:22:41;;;;;;;2.20;1.83;;;5.40;77.10;;;;;;5466471;26;20268;-63
2024/04/25 00:25:06;;;;;;;3.15;2.13;;;5.40;77.10;;;;;;5473134;26;19994;-63
2024/04/25 00:27:32;;;;;;;3.10;2.00;;;5.40;77.20;;;;;;5473248;26;19994;-63
2024/04/25 00:29:57;;;;;;;2.95;2.15;;;5.30;77.20;;;;;;5466359;26;20006;-63
2024/04/25 00:32:23;;;;;;;3.55;2.25;;;5.30;77.20;;;;;;5469113;26;19994;-63
2024/04/25 00:34:48;;;;;;;2.30;2.10;;;5.30;77.40;;;;;;5467698;26;20091;-63
2024/04/25 00:37:14;;;;;;;2.65;2.00;;;5.30;77.30;;;;;;5471467;26;20036;-63
2024/04/25 00:39:40;;;;;;;2.45;2.25;;;5.20;77.30;;;;;;5460326;26;19999;-63
2024/04/25 00:42:05;;;;;;;2.30;2.03;;;5.20;77.40;;;;;;5477668;26;20038;-64
2024/04/25 00:44:31;;;;;;;3.75;2.28;;;5.20;77.40;;;;;;5470973;26;19998;-63
2024/04/25 00:46:57;;;;;;;3.75;2.30;;;5.20;77.30;;;;;;5474853;26;20120;-63
2024/04/25 00:49:22;;;;;;;2.45;2.17;;;5.20;77.40;;;;;;5399478;26;20066;-63
2024/04/25 00:51:50;;;;;;;2.85;2.00;;;5.20;77.40;;;;;;5470802;26;19994;-63
2024/04/25 00:54:16;;;;;;;2.55;2.28;;;5.20;77.50;;;;;;5477671;26;19997;-63
2024/04/25 00:56:43;;;;;;;2.60;2.40;;;5.20;77.70;;;;;;5469797;26;20031;-64
2024/04/25 00:59:11;;;;;;;2.40;2.20;;;5.20;77.60;;;;;;5473280;26;20469;-63
2024/04/25 01:01:40;;;;;;;2.50;2.30;;;5.20;77.60;;;;;;5479812;26;20001;-63
2024/04/25 01:04:06;;;;;;;2.50;2.10;;;5.10;77.60;;;;;;5447229;26;20465;-63
2024/04/25 01:06:33;;;;;;;2.50;2.13;;;5.20;77.70;;;;;;5455668;26;19998;-63
2024/04/25 01:08:59;;;;;;;2.65;2.08;;;5.20;77.60;;;;;;5476414;26;20010;-63
2024/04/25 01:11:28;;;;;;;4.72;2.50;;;5.10;77.70;;;;;;5468458;26;20001;-63
2024/04/25 01:13:54;;;;;;;3.17;2.20;;;5.10;77.80;;;;;;5485349;26;20039;-64
2024/04/25 01:16:20;;;;;;;2.85;2.20;;;5.10;77.80;;;;;;5477336;26;20076;-64
2024/04/25 01:18:46;;;;;;;2.67;2.40;;;5.20;78.00;;;;;;5433275;26;20477;-63
2024/04/25 01:21:11;;;;;;;3.80;2.50;;;5.20;78.00;;;;;;5480988;26;20012;-63
2024/04/25 01:23:39;;;;;;;4.28;2.78;;;5.20;78.00;;;;;;5478373;26;20552;-64
2024/04/25 01:26:06;;;;;;;4.55;2.70;;;5.10;78.10;;;;;;5480419;26;20034;-64
2024/04/25 01:28:33;;;;;;;3.47;2.90;;;5.20;78.10;;;;;;5472600;26;20024;-63
2024/04/25 01:30:59;;;;;;;4.18;2.80;;;5.20;78.10;;;;;;5474990;26;19994;-64
2024/04/25 01:33:28;;;;;;;3.75;2.92;;;5.20;78.00;;;;;;5460354;26;20086;-63
2024/04/25 01:35:54;;;;;;;3.72;3.10;;;5.20;78.10;;;;;;5473378;26;20002;-64
2024/04/25 01:38:19;;;;;;;4.68;3.47;;;5.20;78.20;;;;;;5477876;26;20086;-63
2024/04/25 01:40:45;;;;;;;5.95;3.95;;;5.20;78.30;;;;;;5466288;26;20356;-63
2024/04/25 01:43:11;;;;;;;4.25;3.53;;;5.20;78.40;;;;;;5475707;26;19994;-63
2024/04/25 01:45:36;;;;;;;4.85;3.45;;;5.20;78.50;;;;;;5474412;26;20011;-63
2024/04/25 01:48:02;;;;;;;4.85;3.58;;;5.20;78.50;;;;;;5443877;26;19994;-63
2024/04/25 01:50:28;;;;;;;4.50;3.45;;;5.10;78.50;;;;;;5469209;26;20006;-63
2024/04/25 01:52:53;;;;;;;4.10;3.42;;;5.20;78.60;;;;;;5474185;26;20002;-63
2024/04/25 01:55:19;;;;;;;4.60;3.47;;;5.20;78.60;;;;;;5471363;26;20026;-63
2024/04/25 01:57:44;;;;;;;3.97;3.28;;;5.20;78.50;;;;;;5463837;26;20017;-63
2024/04/25 02:00:11;;;;;;;4.60;3.65;;;5.20;78.50;;;;;;5466154;26;20024;-63
2024/04/25 02:02:36;;;;;;;4.53;3.25;;;5.20;78.50;;;;;;5469310;26;19994;-64
2024/04/25 02:05:02;;;;;;;3.92;3.53;;;5.20;78.60;;;;;;5442989;26;19995;-64
2024/04/25 02:07:28;;;;;;;5.53;3.67;;;5.20;78.60;;;;;;5473239;26;20062;-63
2024/04/25 02:09:53;;;;;;;4.15;3.28;;;5.20;78.60;;;;;;5476670;26;20341;-62
2024/04/25 02:12:19;;;;;;;5.38;3.50;;;5.20;78.60;;;;;;5465903;26;20002;-63
2024/04/25 02:14:44;;;;;;;5.15;3.42;;;5.20;78.70;;;;;;5474027;26;19998;-63
2024/04/25 02:17:10;;;;;;;3.88;3.47;;;5.20;78.70;;;;;;5466779;26;20331;-63
2024/04/25 02:19:36;;;;;;;4.72;3.60;;;5.20;78.80;;;;;;5471626;26;19995;-63
2024/04/25 02:27:30;;;;;;;4.27;3.30;;;5.30;78.90;;;;;;5468477;26;20081;-63
2024/04/25 02:29:55;;;;;;;4.28;3.50;;;5.20;78.80;;;;;;5467884;26;20751;-63
2024/04/25 02:32:21;;;;;;;5.25;3.30;;;5.20;78.90;;;;;;5472342;26;20054;-62
2024/04/25 02:34:46;;;;;;;4.28;3.53;;;5.30;78.90;;;;;;5472258;26;20030;-63
2024/04/25 02:37:12;;;;;;;5.10;3.50;;;5.30;79.00;;;;;;5473763;26;20013;-63
2024/04/25 02:39:37;;;;;;;6.90;3.30;;;5.20;79.00;;;;;;5472403;26;20006;-63
2024/04/25 02:42:03;;;;;;;4.25;3.22;;;5.30;79.00;;;;;;5474862;26;20017;-63
2024/04/25 02:44:29;;;;;;;5.57;3.45;;;5.30;79.10;;;;;;5462856;26;19990;-63
2024/04/25 02:46:54;;;;;;;3.90;3.50;;;5.30;79.00;;;;;;5476616;26;19998;-64
2024/04/25 02:49:21;;;;;;;4.32;3.47;;;5.30;79.00;;;;;;5452903;26;19999;-63
2024/04/25 02:51:46;;;;;;;5.80;3.28;;;5.30;78.90;;;;;;5473639;26;20081;-63
2024/04/25 02:54:12;;;;;;;4.97;3.50;;;5.30;78.80;;;;;;5464937;26;20028;-63
2024/04/25 02:56:37;;;;;;;3.78;3.00;;;5.40;78.90;;;;;;5469904;26;20006;-62
2024/04/25 02:59:03;;;;;;;5.50;3.70;;;5.40;78.90;;;;;;5463810;26;19994;-64
2024/04/25 03:01:29;;;;;;;4.75;3.65;;;5.40;78.80;;;;;;5478610;26;19995;-63
2024/04/25 03:03:55;;;;;;;4.32;3.80;;;5.40;78.80;;;;;;5472155;26;20644;-63
2024/04/25 03:06:25;;;;;;;4.72;3.67;;;5.40;78.70;;;;;;5478723;26;20016;-64
2024/04/25 03:08:50;;;;;;;3.88;3.28;;;5.40;78.80;;;;;;5469667;26;20006;-64
2024/04/25 03:11:16;;;;;;;6.80;3.85;;;5.40;78.60;;;;;;5475164;26;20108;-63
2024/04/25 03:13:42;;;;;;;7.68;3.95;;;5.40;78.70;;;;;;5470272;26;19994;-64
2024/04/25 03:16:08;;;;;;;5.32;3.78;;;5.40;78.60;;;;;;5472113;26;19998;-64
2024/04/25 03:18:34;;;;;;;5.28;3.80;;;5.40;78.60;;;;;;5469910;26;19998;-64
2024/04/25 03:21:02;;;;;;;3.80;3.25;;;5.50;78.80;;;;;;5468317;26;20473;-63
2024/04/25 03:23:27;;;;;;;6.80;4.10;;;5.50;78.80;;;;;;5467892;26;20002;-63
2024/04/25 03:25:53;;;;;;;4.53;3.92;;;5.50;78.80;;;;;;5473763;26;20480;-64
2024/04/25 03:28:18;;;;;;;6.72;4.03;;;5.50;78.90;;;;;;5470389;26;19998;-63
2024/04/25 03:30:44;;;;;;;4.20;3.80;;;5.50;78.90;;;;;;5472751;26;20010;-63
2024/04/25 03:33:09;;;;;;;6.13;4.03;;;5.50;78.90;;;;;;5434370;26;20022;-63
2024/04/25 03:35:35;;;;;;;5.38;3.90;;;5.50;78.90;;;;;;5470070;26;20530;-63
2024/04/25 03:38:00;;;;;;;4.93;3.88;;;5.50;78.80;;;;;;5468241;26;20325;-60
2024/04/25 03:40:26;;;;;;;7.63;4.30;;;5.50;78.80;;;;;;5465585;26;19994;-62
2024/04/25 03:42:52;;;;;;;6.53;4.68;;;5.60;78.80;;;;;;5471308;26;20006;-62
2024/04/25 03:45:17;;;;;;;7.07;4.70;;;5.60;78.90;;;;;;5465765;26;20457;-61
2024/04/25 03:47:43;;;;;;;5.25;4.50;;;5.60;78.90;;;;;;5440010;26;20086;-64
2024/04/25 03:50:09;;;;;;;6.65;4.18;;;5.60;78.80;;;;;;5468702;26;20065;-63
2024/04/25 03:52:34;;;;;;;6.65;4.45;;;5.60;78.80;;;;;;5467536;26;20379;-64
2024/04/25 03:55:00;;;;;;;5.10;4.03;;;5.60;78.80;;;;;;5469294;26;20053;-63
2024/04/25 03:57:25;;;;;;;7.28;4.38;;;5.60;78.80;;;;;;5466762;26;20361;-63
2024/04/25 03:59:51;;;;;;;4.65;3.88;;;5.60;78.80;;;;;;5467922;26;20005;-64
2024/04/25 04:02:16;;;;;;;5.82;4.80;;;5.60;78.80;;;;;;5472057;26;20071;-63
2024/04/25 04:04:42;;;;;;;6.05;4.72;;;5.60;78.90;;;;;;5436893;26;19998;-63
2024/04/25 04:07:07;;;;;;;8.80;5.22;;;5.60;79.00;;;;;;5470767;26;20634;-63
2024/04/25 04:09:33;;;;;;;6.40;4.70;;;5.60;79.00;;;;;;5468935;26;20334;-64
2024/04/25 04:11:59;;;;;;;5.82;4.45;;;5.60;79.00;;;;;;5467822;26;19998;-63
2024/04/25 04:14:24;;;;;;;5.45;4.07;;;5.60;79.10;;;;;;5466206;26;20387;-63
2024/04/25 04:16:56;;;;;;;5.18;4.30;;;5.50;79.00;;;;;;5468744;26;20461;-64
2024/04/25 04:19:22;;;;;;;7.35;4.28;;;5.50;79.10;;;;;;5476201;26;20357;-63
2024/04/25 04:21:48;;;;;;;6.28;4.15;;;5.60;79.10;;;;;;5468301;26;19998;-64
2024/04/25 04:24:16;;;;;;;5.97;4.30;;;5.60;79.10;;;;;;5464642;26;19994;-62
2024/04/25 04:26:41;;;;;;;5.28;4.57;;;5.50;79.00;;;;;;5476757;26;20012;-62
2024/04/25 04:29:07;;;;;;;5.07;4.53;;;5.60;79.10;;;;;;5473334;26;20619;-63
2024/04/25 04:31:33;;;;;;;9.27;4.85;;;5.50;79.00;;;;;;5460854;26;20531;-63
2024/04/25 04:33:58;;;;;;;8.10;4.35;;;5.60;79.10;;;;;;5473919;26;20038;-63
2024/04/25 04:36:24;;;;;;;6.68;4.60;;;5.50;79.00;;;;;;5463342;26;19991;-63
2024/04/25 04:38:49;;;;;;;7.75;4.95;;;5.60;79.20;;;;;;5480912;26;20078;-63
2024/04/25 04:41:15;;;;;;;6.35;4.72;;;5.60;79.20;;;;;;5472970;26;20006;-63
2024/04/25 04:43:40;;;;;;;6.32;4.45;;;5.60;79.20;;;;;;5466598;26;20072;-63
2024/04/25 04:46:06;;;;;;;7.38;5.00;;;5.60;79.20;;;;;;5481907;26;20002;-63
2024/04/25 04:48:32;;;;;;;6.97;4.95;;;5.60;79.10;;;;;;5476049;26;19998;-63
2024/04/25 04:50:57;;;;;;;7.97;5.07;;;5.50;79.10;;;;;;5475471;26;20074;-63
2024/04/25 04:53:23;;;;;;;6.22;4.72;;;5.50;79.20;;;;;;5475442;26;19998;-63
2024/04/25 04:55:48;;;;;;;7.85;4.90;;;5.60;79.30;;;;;;5477742;26;19994;-63
2024/04/25 04:58:14;;;;;;;7.25;4.82;;;5.50;79.30;;;;;;5471672;26;20077;-64
2024/04/25 05:00:39;;;;;;;8.05;4.90;;;5.50;79.30;;;;;;5470947;26;20466;-63
2024/04/25 05:03:07;;;;;;;5.70;4.43;;;5.50;79.40;;;;;;5476290;26;20014;-63
2024/04/25 05:05:33;;;;;;;7.72;4.50;;;5.50;79.40;;;;;;5472715;26;20518;-63
2024/04/25 05:07:59;;;;;;;5.38;4.28;;;5.50;79.50;;;;;;5478920;26;19990;-63
2024/04/25 05:10:25;;;;;;;6.88;4.82;;;5.50;79.60;;;;;;5441590;26;20027;-63
2024/04/25 05:12:52;;;;;;;6.18;4.43;;;5.50;79.70;;;;;;5478486;26;19998;-63
2024/04/25 05:15:18;;;;;;;7.65;4.22;;;5.50;79.70;;;;;;5477049;26;20417;-63
2024/04/25 05:17:43;;;;;;;5.22;4.53;;;5.50;79.70;;;;;;5474744;26;19994;-63
2024/04/25 05:20:09;;;;;;;6.63;4.93;;;5.50;79.70;;;;;;5478705;26;20078;-63
2024/04/25 05:22:36;;;;;;;6.68;4.47;;;5.50;79.80;;;;;;5474010;26;20009;-64
2024/04/25 05:25:02;;;;;;;8.15;4.93;;;5.50;79.90;;;;;;5476948;26;20042;-63
2024/04/25 05:27:28;;;;;;;6.22;4.57;;;5.50;79.90;;;;;;5473354;26;20061;-63
2024/04/25 05:29:53;;;;;;;6.07;4.78;;;5.50;80.00;;;;;;5476172;26;20005;-63
2024/04/25 05:32:19;;;;;;;8.48;4.45;;;5.50;80.00;;;;;;5477304;26;19994;-63
2024/04/25 05:34:45;;;;;;;5.60;4.70;;;5.50;80.10;;;;;;5469717;26;22303;-64
2024/04/25 05:37:11;;;;;;;8.40;5.05;;;5.50;80.20;;;;;;5479695;26;20345;-63
2024/04/25 05:39:36;;;;;;;5.05;4.38;;;5.50;80.10;;;;;;5476544;26;20010;-63
2024/04/25 05:42:02;;;;;;;8.20;4.55;;;5.50;80.20;;;;;;5475373;26;19994;-63
2024/04/25 05:44:29;;;;;;;11.20;4.82;;;5.50;80.10;;;;;;5470307;26;20054;-64
2024/04/25 05:46:54;;;;;;;7.40;4.75;;;5.50;80.20;;;;;;5479329;26;20002;-63
2024/04/25 05:49:20;;;;;;;6.90;4.93;;;5.50;80.40;;;;;;5481404;26;20077;-63
2024/04/25 05:51:46;;;;;;;7.53;5.00;;;5.50;80.50;;;;;;5472273;26;20013;-64
2024/04/25 05:54:11;;;;;;;8.13;5.00;;;5.50;80.60;;;;;;5472343;26;20013;-63
2024/04/25 05:56:37;;;;;;;8.27;5.35;;;5.50;80.50;;;;;;5475816;26;20509;-63
2024/04/25 05:59:02;;;;;;;6.70;5.38;;;5.60;80.60;;;;;;5468576;26;20025;-62
2024/04/25 06:01:28;;;;;;;6.35;5.22;;;5.50;80.60;;;;;;5478462;26;20037;-63
2024/04/25 06:03:53;;;;;;;10.70;5.32;;;5.60;80.50;;;;;;5478818;26;20422;-64
2024/04/25 06:06:19;;;;;;;6.03;5.00;;;5.60;80.60;;;;;;5473910;26;19995;-63
2024/04/25 06:08:45;;;;;;;6.93;5.00;;;5.60;80.70;;;;;;5465962;26;20832;-64
2024/04/25 06:11:10;;;;;;;6.57;5.05;;;5.60;80.70;;;;;;5476956;26;20441;-63
2024/04/25 06:13:36;;;;;;;7.10;4.93;;;5.60;80.90;;;;;;5465812;26;19994;-63
2024/04/25 06:16:04;;;;;;;8.15;5.30;;;5.60;80.90;;;;;;5477555;26;20026;-63
2024/04/25 06:18:30;;;;;;;14.15;5.60;;;5.60;80.90;;;;;;5474839;26;20738;-64
2024/04/25 06:20:55;;;;;;;8.48;5.55;;;5.70;80.90;;;;;;5475665;26;19994;-63
2024/04/25 06:23:22;;;;;;;6.65;5.22;;;5.60;80.90;;;;;;5473059;26;20402;-63
2024/04/25 06:25:47;;;;;;;7.15;5.32;;;5.70;81.10;;;;;;5471261;26;19998;-63
2024/04/25 06:28:13;;;;;;;7.72;5.35;;;5.70;81.00;;;;;;5465130;26;20026;-63
2024/04/25 06:30:38;;;;;;;11.73;5.82;;;5.70;80.90;;;;;;5473496;26;20030;-63
2024/04/25 06:33:04;;;;;;;6.25;5.35;;;5.70;80.90;;;;;;5474199;26;20005;-63
2024/04/25 06:35:30;;;;;;;6.80;5.45;;;5.80;81.00;;;;;;5463808;26;19995;-63
2024/04/25 06:37:55;;;;;;;9.85;5.40;;;5.80;81.10;;;;;;5483469;26;20005;-63
2024/04/25 06:40:21;;;;;;;6.82;4.85;;;5.80;81.00;;;;;;5464576;26;19998;-63
2024/04/25 06:42:46;;;;;;;7.38;5.20;;;5.90;80.90;;;;;;5474631;26;19994;-63
2024/04/25 06:45:13;;;;;;;7.97;4.95;;;5.90;81.00;;;;;;5481125;26;20009;-63
2024/04/25 06:47:41;;;;;;;7.53;5.28;;;5.90;81.10;;;;;;5478567;26;19995;-62
2024/04/25 06:50:07;;;;;;;8.07;5.15;;;6.00;81.10;;;;;;5438468;26;19995;-63
2024/04/25 06:52:32;;;;;;;8.70;5.53;;;6.00;81.10;;;;;;5480523;26;19994;-63
2024/04/25 06:54:58;;;;;;;8.35;5.40;;;6.10;81.10;;;;;;5478616;26;20341;-63
2024/04/25 06:57:25;;;;;;;6.03;4.18;;;6.10;80.80;;;;;;5475037;26;20086;-64
2024/04/25 06:59:52;;;;;;;6.70;4.72;;;6.20;80.60;;;;;;5467897;26;20321;-63
2024/04/25 07:02:19;;;;;;;5.90;4.20;;;6.20;81.10;;;;;;5481234;26;19998;-63
2024/04/25 07:04:46;;;;;;;6.97;4.47;;;6.30;80.40;;;;;;5470835;26;20005;-63
2024/04/25 07:07:12;;;;;;;5.85;4.20;;;6.30;80.30;;;;;;5471413;26;20908;-63
2024/04/25 07:09:37;;;;;;;6.55;4.20;;;6.40;80.20;;;;;;5477827;26;20003;-64
2024/04/25 07:12:05;;;;;;;6.90;4.43;;;6.40;80.00;;;;;;5475712;26;19998;-64
2024/04/25 07:14:31;;;;;;;7.35;4.10;;;6.50;80.00;;;;;;5478386;26;20025;-63
2024/04/25 07:16:56;;;;;;;5.88;4.40;;;6.50;79.80;;;;;;5481296;26;20009;-64
2024/04/25 07:19:22;;;;;;;6.22;4.30;;;6.60;79.60;;;;;;5468860;26;20005;-62
2024/04/25 07:21:47;;;;;;;6.32;4.32;;;6.60;79.60;;;;;;5465010;26;19999;-63
2024/04/25 07:24:13;;;;;;;6.97;4.65;;;6.60;79.50;;;;;;5476225;26;20002;-63
2024/04/25 07:26:38;;;;;;;6.63;4.65;;;6.60;79.50;;;;;;5479953;26;20005;-63
2024/04/25 07:29:04;;;;;;;6.93;4.53;;;6.70;79.30;;;;;;5479183;26;20006;-63
2024/04/25 07:31:30;;;;;;;5.40;4.28;;;6.80;78.90;;;;;;5476734;26;19994;-63
2024/04/25 07:33:55;;;;;;;7.70;4.38;;;6.80;78.80;;;;;;5478286;26;20030;-63
2024/04/25 07:36:21;;;;;;;5.90;4.32;;;6.90;78.70;;;;;;5478342;26;20047;-63
2024/04/25 07:38:47;;;;;;;6.18;3.92;;;6.90;78.70;;;;;;5474699;26;20466;-63
2024/04/25 07:41:12;;;;;;;5.80;4.28;;;6.90;78.80;;;;;;5474266;26;20362;-63
2024/04/25 07:43:38;;;;;;;5.80;4.00;;;7.00;78.70;;;;;;5467394;26;20009;-63
2024/04/25 07:46:09;;;;;;;6.90;3.60;;;7.10;78.20;;;;;;5476747;26;19994;-63
2024/04/25 07:48:35;;;;;;;6.43;3.80;;;7.10;77.70;;;;;;5480534;26;19990;-63
2024/04/25 07:51:02;;;;;;;5.28;3.78;;;7.20;77.60;;;;;;5476434;26;19998;-64
2024/04/25 07:53:28;;;;;;;4.95;2.83;;;7.20;77.50;;;;;;5468164;26;20346;-64
2024/04/25 07:55:53;;;;;;;4.53;3.10;;;7.30;77.30;;;;;;5469709;26;20018;-63
2024/04/25 07:58:19;;;;;;;5.53;3.30;;;7.30;76.80;;;;;;5469236;26;20013;-62
2024/04/25 08:00:45;;;;;;;4.43;2.92;;;7.40;76.80;;;;;;5481376;26;19990;-63
2024/04/25 08:03:11;;;;;;;5.97;3.20;;;7.40;76.80;;;;;;5470053;26;20026;-63
2024/04/25 08:05:37;;;;;;;3.83;2.88;;;7.50;76.80;;;;;;5474145;26;20002;-63
2024/04/25 08:08:03;;;;;;;4.00;3.05;;;7.60;77.20;;;;;;5468073;26;20349;-64
2024/04/25 08:10:29;;;;;;;5.68;3.00;;;7.60;74.70;;;;;;5467709;26;19994;-63
2024/04/25 08:12:54;;;;;;;4.72;3.00;;;7.70;74.50;;;;;;5440209;26;19999;-63
2024/04/25 08:15:20;;;;;;;6.07;3.15;;;7.70;74.20;;;;;;5481361;26;20005;-64
2024/04/25 08:17:48;;;;;;;3.22;2.85;;;7.80;74.50;;;;;;5473279;26;20878;-63
2024/04/25 08:20:14;;;;;;;7.85;3.15;;;7.80;74.40;;;;;;5443691;26;20002;-64
2024/04/25 08:22:40;;;;;;;4.38;3.03;;;7.90;74.10;;;;;;5478497;26;20002;-64
2024/04/25 08:25:06;;;;;;;5.18;2.92;;;7.90;74.20;;;;;;5436279;26;20084;-64
2024/04/25 08:27:32;;;;;;;6.93;2.97;;;8.00;73.90;;;;;;5476484;26;20001;-64
2024/04/25 08:29:58;;;;;;;4.38;3.10;;;8.00;73.30;;;;;;5474271;26;20005;-64
2024/04/25 08:32:23;;;;;;;4.55;2.90;;;8.20;73.30;;;;;;5476461;26;20424;-63
2024/04/25 08:34:49;;;;;;;3.65;2.67;;;8.20;72.30;;;;;;5479041;26;19998;-63
2024/04/25 08:37:14;;;;;;;2.92;2.53;;;8.20;70.60;;;;;;5477084;26;20352;-64
2024/04/25 08:39:40;;;;;;;3.50;2.70;;;8.30;71.00;;;;;;5477553;26;20028;-63
2024/04/25 08:42:09;;;;;;;4.03;2.88;;;8.30;70.40;;;;;;5476754;26;20306;-63
2024/04/25 08:44:36;;;;;;;4.38;2.83;;;8.30;70.20;;;;;;5471150;26;19994;-64
2024/04/25 08:47:03;;;;;;;4.20;2.50;;;8.40;69.60;;;;;;5477987;26;20017;-63
2024/04/25 08:49:32;;;;;;;4.35;2.15;;;8.40;69.70;;;;;;5468038;26;20035;-63
2024/04/25 08:51:59;;;;;;;3.58;2.22;;;8.40;70.00;;;;;;5480308;26;19998;-63
2024/04/25 08:54:25;;;;;;;5.40;2.47;;;8.40;69.30;;;;;;5475661;26;20014;-63
2024/04/25 08:56:52;;;;;;;3.03;2.30;;;8.40;68.30;;;;;;5472603;26;20009;-64
2024/04/25 08:59:17;;;;;;;3.90;2.38;;;8.40;67.80;;;;;;5477844;26;19998;-64
2024/04/25 09:01:45;;;;;;;2.97;1.98;;;8.40;67.40;;;;;;5466508;26;20337;-63
2024/04/25 09:04:16;;;;;;;3.28;2.20;;;8.40;68.40;;;;;;5477660;26;20465;-63
2024/04/25 09:06:42;;;;;;;3.85;2.15;;;8.50;68.10;;;;;;5475138;26;20002;-64
2024/04/25 09:09:10;;;;;;;2.95;2.10;;;8.50;68.10;;;;;;5442287;26;20435;-63
2024/04/25 09:11:38;;;;;;;3.25;2.10;;;8.50;67.90;;;;;;5464159;26;20002;-64
2024/04/25 09:14:03;;;;;;;2.72;2.22;;;8.50;67.00;;;;;;5479321;26;20062;-63
2024/04/25 09:16:33;;;;;;;2.58;1.80;;;8.60;67.80;;;;;;5474766;26;20006;-63
2024/04/25 09:18:59;;;;;;;2.47;2.00;;;8.60;68.00;;;;;;5468413;26;20532;-64
2024/04/25 09:21:25;;;;;;;2.45;1.80;;;8.60;66.70;;;;;;5470978;26;20034;-64
2024/04/25 09:23:50;;;;;;;2.17;1.98;;;8.60;67.80;;;;;;5478546;26;20449;-64
2024/04/25 09:26:16;;;;;;;3.85;1.92;;;8.60;68.10;;;;;;5475716;26;20350;-64
2024/04/25 09:28:41;;;;;;;5.05;2.05;;;8.70;68.10;;;;;;5474799;26;20006;-64
2024/04/25 09:31:08;;;;;;;3.03;1.98;;;8.70;67.30;;;;;;5477444;26;20382;-64
2024/04/25 09:33:35;;;;;;;2.00;1.75;;;8.80;68.30;;;;;;5472198;26;19998;-63
2024/04/25 09:36:01;;;;;;;3.90;1.92;;;8.90;68.20;;;;;;5478656;26;20585;-63
2024/04/25 09:38:26;;;;;;;2.80;1.90;;;8.90;68.10;;;;;;5476918;26;20013;-63
2024/04/25 09:40:55;;;;;;;3.70;1.60;;;9.00;67.80;;;;;;5462912;26;19994;-62
2024/04/25 09:43:21;;;;;;;3.40;1.90;;;9.10;67.10;;;;;;5468647;26;19998;-63
2024/04/25 09:45:48;;;;;;;3.17;2.00;;;9.10;67.10;;;;;;5472869;26;20070;-64
2024/04/25 09:48:19;;;;;;;2.72;1.63;;;9.10;67.10;;;;;;5465417;26;20012;-63
2024/04/25 09:50:56;;;;;;;2.17;1.70;;;9.20;66.70;;;;;;5473061;26;20006;-64
2024/04/25 09:53:28;;;;;;;1.52;1.42;;;9.30;65.50;;;;;;5472752;26;20009;-64
2024/04/25 09:55:54;;;;;;;2.22;1.50;;;9.30;66.10;;;;;;5473189;26;19999;-64
2024/04/25 09:58:46;;;;;;;1.75;1.30;;;9.40;65.20;;;;;;5472454;26;20030;-63
2024/04/25 10:01:13;;;;;;;1.45;1.30;;;9.40;64.60;;;;;;5467811;26;20743;-64
2024/04/25 10:03:41;;;;;;;2.15;1.00;;;9.40;65.60;;;;;;5476279;26;20468;-64
2024/04/25 10:06:07;;;;;;;1.38;0.82;;;9.40;64.60;;;;;;5475769;26;20520;-63
2024/04/25 10:08:34;;;;;;;2.10;0.90;;;9.40;63.40;;;;;;5475941;26;20001;-63
2024/04/25 10:10:59;;;;;;;2.67;0.95;;;9.30;63.00;;;;;;5460306;26;19994;-64
2024/04/25 10:13:25;;;;;;;1.67;0.90;;;9.30;63.10;;;;;;5470855;26;20074;-64
2024/04/25 10:15:51;;;;;;;5.35;1.17;;;9.30;62.40;;;;;;5476771;26;20002;-63
2024/04/25 10:18:17;;;;;;;1.75;1.15;;;9.30;62.30;;;;;;5477059;26;20002;-63
2024/04/25 10:20:43;;;;;;;1.83;1.20;;;9.20;62.80;;;;;;5474801;26;19998;-64
2024/04/25 10:23:11;;;;;;;2.70;1.08;;;9.10;63.30;;;;;;5477591;26;20013;-62
2024/04/25 10:25:37;;;;;;;2.75;1.38;;;9.00;63.30;;;;;;5472012;26;20002;-63
2024/04/25 10:28:06;;;;;;;3.05;1.58;;;9.00;63.10;;;;;;5470447;26;20002;-64
2024/04/25 10:30:35;;;;;;;1.98;1.60;;;9.00;63.40;;;;;;5466706;26;20017;-62
2024/04/25 10:33:01;;;;;;;1.58;1.45;;;8.90;64.10;;;;;;5481047;26;20366;-62
2024/04/25 10:35:36;;;;;;;2.35;1.70;;;8.90;64.80;;;;;;5437267;26;20005;-63
2024/04/25 10:38:01;;;;;;;3.92;1.48;;;8.90;64.90;;;;;;5469844;26;20472;-61
2024/04/25 10:40:29;;;;;;;1.60;1.40;;;8.90;65.30;;;;;;5471433;26;20010;-63
2024/04/25 10:42:58;;;;;;;3.05;1.83;;;9.00;65.20;;;;;;5469626;26;20009;-62
2024/04/25 10:45:25;;;;;;;2.38;1.90;;;9.10;64.50;;;;;;5475318;26;20002;-62
2024/04/25 10:47:51;;;;;;;2.15;1.73;;;9.20;63.90;;;;;;5471490;26;20005;-63
2024/04/25 10:50:17;;;;;;;2.92;1.90;;;9.30;64.10;;;;;;5445872;26;20006;-61
2024/04/25 10:52:43;;;;;;;2.22;1.60;;;9.40;63.90;;;;;;5472671;26;20016;-61
2024/04/25 10:55:09;;;;;;;3.85;1.70;;;9.50;63.80;;;;;;5471125;26;20013;-62
2024/04/25 10:57:34;;;;;;;1.50;1.40;;;9.50;62.90;;;;;;5473624;26;20009;-63
2024/04/25 11:00:00;;;;;;;2.90;1.77;;;9.70;62.60;;;;;;5469180;26;20006;-63
2024/04/25 11:02:34;;;;;;;2.40;1.50;;;9.70;61.60;;;;;;5464657;26;19991;-63
2024/04/25 11:05:00;;;;;;;1.85;1.40;;;9.80;61.70;;;;;;5466779;26;20078;-63
2024/04/25 11:07:25;;;;;;;2.13;1.77;;;9.90;61.50;;;;;;5474479;26;20010;-63
2024/04/25 11:09:51;;;;;;;2.38;1.50;;;10.00;61.20;;;;;;5476958;26;19990;-62
2024/04/25 11:12:18;;;;;;;5.00;2.20;;;10.00;60.30;;;;;;5469284;26;19999;-62
2024/04/25 11:14:44;;;;;;;3.20;1.30;;;10.00;61.30;;;;;;5472970;26;20358;-63
2024/04/25 11:17:12;;;;;;;2.10;1.48;;;10.00;61.50;;;;;;5478158;26;19994;-63
2024/04/25 11:19:39;;;;;;;2.00;1.80;;;9.80;61.00;;;;;;5474264;26;19995;-64
2024/04/25 11:22:05;;;;;;;3.05;2.10;;;9.60;62.70;;;;;;5480145;26;20013;-64
2024/04/25 11:24:31;;;;;;;3.72;2.28;;;9.30;64.50;;;;;;5475977;26;20010;-64
2024/04/25 11:27:01;;;;;;;4.38;2.60;;;9.10;65.80;;;;;;5480154;26;19994;-64
2024/04/25 11:29:27;;;;;;;4.25;2.58;;;8.90;67.30;;;;;;5474659;26;20013;-64
2024/04/25 11:31:53;;;;;;;5.20;2.60;;;8.70;68.60;;;;;;5470687;26;19991;-64
2024/04/25 11:34:19;;;;;;;3.65;2.40;;;8.50;68.80;;;;;;5472027;26;20386;-64
2024/04/25 11:36:54;;;;;;;3.30;2.50;;;8.40;69.50;;;;;;5476788;26;20076;-63
2024/04/25 11:39:20;;;;;;;3.28;2.40;;;8.20;70.50;;;;;;5473397;26;20006;-64
2024/04/25 11:41:46;;;;;;;3.28;2.75;;;8.10;72.20;;;;;;5478135;26;19994;-64
2024/04/25 11:44:12;;;;;;;7.78;2.67;;;8.10;71.80;;;;;;5478819;26;20091;-64
2024/04/25 11:46:38;;;;;;;4.00;2.50;;;8.00;71.20;;;;;;5475555;26;20049;-64
2024/04/25 11:49:04;;;;;;;4.05;2.60;;;8.00;72.00;;;;;;5474375;26;20434;-63
2024/04/25 11:51:30;;;;;;;7.88;2.97;;;8.00;72.70;;;;;;5481085;26;19998;-62
2024/04/25 11:53:56;;;;;;;3.67;2.30;;;8.10;71.90;;;;;;5476696;26;20338;-63
2024/04/25 11:56:22;;;;;;;3.67;2.20;;;8.10;72.00;;;;;;5478447;26;19993;-64
2024/04/25 11:58:47;;;;;;;5.85;3.40;;;8.20;70.70;;;;;;5473941;26;20065;-64
2024/04/25 12:01:13;;;;;;;4.40;2.78;;;8.30;70.80;;;;;;5475943;26;20415;-64
2024/04/25 12:03:38;;;;;;;3.50;2.72;;;8.30;71.30;;;;;;5475670;26;20249;-64
2024/04/25 12:06:04;;;;;;;4.28;2.30;;;8.50;70.50;;;;;;5478581;26;20370;-64
2024/04/25 12:08:30;;;;;;;4.43;2.67;;;8.50;69.50;;;;;;5478028;26;20020;-64
2024/04/25 12:10:56;;;;;;;3.17;2.30;;;8.60;69.70;;;;;;5467932;26;19998;-64
2024/04/25 12:13:21;;;;;;;4.65;2.90;;;8.70;69.90;;;;;;5445200;26;19994;-62
2024/04/25 12:15:47;;;;;;;3.90;2.45;;;8.80;70.60;;;;;;5477395;26;22271;-64
2024/04/25 12:18:12;;;;;;;4.93;2.45;;;8.90;69.50;;;;;;5475275;26;20419;-64
2024/04/25 12:20:38;;;;;;;2.60;2.40;;;9.00;70.40;;;;;;5475613;26;20005;-64
2024/04/25 12:23:04;;;;;;;3.53;2.42;;;9.10;69.00;;;;;;5481393;26;20038;-64
2024/04/25 12:25:31;;;;;;;5.35;2.60;;;9.20;69.10;;;;;;5465276;26;21392;-63
2024/04/25 12:27:57;;;;;;;3.95;2.67;;;9.40;69.20;;;;;;5479626;26;20062;-63
2024/04/25 12:30:23;;;;;;;3.13;2.53;;;9.50;68.60;;;;;;5470508;26;19990;-64
2024/04/25 12:32:48;;;;;;;6.78;3.40;;;9.60;68.10;;;;;;5477923;26;20005;-64
2024/04/25 12:35:14;;;;;;;5.97;3.38;;;9.70;66.40;;;;;;5469401;26;19994;-64
2024/04/25 12:37:39;;;;;;;4.18;2.70;;;9.90;64.80;;;;;;5476507;26;20009;-64
2024/04/25 12:40:05;;;;;;;5.38;2.72;;;9.90;64.50;;;;;;5473614;26;19994;-64
2024/04/25 12:42:31;;;;;;;3.47;2.22;;;10.00;64.30;;;;;;5480379;26;20071;-64
2024/04/25 12:44:56;;;;;;;3.38;2.10;;;10.10;65.20;;;;;;5476435;26;20066;-63
2024/04/25 12:47:22;;;;;;;2.92;1.73;;;10.20;64.40;;;;;;5475415;26;19998;-64
2024/04/25 12:49:48;;;;;;;4.90;2.35;;;10.20;63.60;;;;;;5466710;26;20552;-64
2024/04/25 12:52:13;;;;;;;4.15;2.22;;;10.20;62.70;;;;;;5477902;26;19990;-64
2024/04/25 12:54:39;;;;;;;3.75;2.30;;;10.30;63.10;;;;;;5471771;26;20006;-64
2024/04/25 12:57:05;;;;;;;4.93;2.53;;;10.30;63.40;;;;;;5479528;26;19990;-64